Aviation Digital Data Service (ADDS)

Output produced by METARs form (1802 UTC 20 January 2019)
found at http://www.aviationweather.gov/metar/data/
 
EDAC 201750Z AUTO 06002KT 9999 // OVC030/// M03/M06 Q1020
TAF EDAC 201400Z 2015/2024 VRB03KT 9999 SCT020
       
EDMA 201750Z 05004KT 3600 BR FEW006 BKN009 OVC038 M04/M05 Q1016
TAF EDMA 201700Z 2018/2103 06004KT 4000 BR BKN025 
     TEMPO 2018/2103 2500 BR BKN007
       
EDVE 201750Z 09003KT 8000 NSC M04/M06 Q1020
TAF EDVE 201700Z 2018/2021 VRB03KT CAVOK
       
EDDW 201750Z 14003KT CAVOK M03/M04 Q1021 R88/190094 NOSIG
TAF EDDW 201700Z 2018/2118 13003KT CAVOK 
     BECMG 2021/2023 2000 BR 
     PROB30 
     TEMPO 2021/2104 0700 FZFG BKN001 
     BECMG 2104/2106 3500 BR 
     BECMG 2108/2110 22007KT 9999 
     TEMPO 2112/2118 BKN012 
     PROB30 
     TEMPO 2112/2118 4500 -SN
       
ETSB 201720Z AUTO 05006KT 5000 // ////// M06/M08 Q1016 ///
ETHB 201720Z 05003KT 3500 BR M05/M06 Q1020 YLO
ETHC 201720Z 07004KT 6000 M04/M05 Q1021 BLACKWHT
EDLW 201750Z VRB02KT CAVOK M02/M06 Q1019
TAF EDLW 201700Z 2018/2118 VRB03KT CAVOK 
     BECMG 2108/2111 22005KT
       
EDDC 201750Z 06003KT CAVOK M03/M06 Q1019 NOSIG
TAF EDDC 201700Z 2018/2118 VRB03KT CAVOK 
     BECMG 2102/2104 4000 BR 
     TEMPO 2103/2108 1400 BR 
     BECMG 2108/2110 8000
       
EDDL 201750Z 05006KT CAVOK M01/M06 Q1019 NOSIG
TAF EDDL 201700Z 2018/2124 01005KT CAVOK 
     BECMG 2018/2021 VRB03KT 
     BECMG 2108/2111 20005KT
       
EDDE 201750Z 04003KT CAVOK M05/M07 Q1018 NOSIG
TAF EDDE 201700Z 2018/2118 VRB03KT CAVOK
       
ETHS 201720Z 12003KT 4500 BR M06/M07 Q1021 GRN
EDFH 201750Z 09004KT CAVOK M06/M07 Q1016
TAF EDFH 201700Z 2018/2118 08005KT CAVOK 
     BECMG 2116/2118 17005KT
       
EDDF 201750Z 07006KT CAVOK M02/M06 Q1018 NOSIG
TAF EDDF 201700Z 2018/2124 05005KT CAVOK 
     BECMG 2112/2115 VRB03KT
       
EDNY 201750Z 00000KT 8000 FEW043 SCT068 M01/M03 Q1014
TAF EDNY 201700Z 2018/2118 VRB03KT 9999 BKN030 
     TEMPO 2022/2110 4000 -SN BR BKN008
       
ETHF 201720Z 31003KT 9999 M03/M07 Q1019 BLACKBLU+
ETNG 201750Z 00000KT CAVOK M04/M06 Q1019
TAF ETNG 2018/2109 15005KT 9999 NSW FEW120 
     PROB30 2102/2108 VRB03KT 4000 BR SKC BY ETGL
       
ETIC 201756Z AUTO 07006KT 9999 OVC019 M03/M06 A3002 RMK AO2 SLP205 T10271062 11020 21029 52015 $
TAF ETIC 201200Z 2012/2118 12009KT 9999 BKN015 620152 QNH2997INS TXM01/2112Z
TNM03/2106Z
       
EDDH 201750Z 14006KT 2500 BR FEW001 BKN002 M04/M04 Q1021 R88/190095 NOSIG
TAF EDDH 201700Z 2018/2124 16002KT 3000 BR BKN003 
     TEMPO 2018/2106 2000 BR 
     PROB30 
     TEMPO 2020/2103 0800 FZFG VV001 
     BECMG 2103/2106 24006KT 
     BECMG 2107/2109 9999 FEW020 
     TEMPO 2112/2118 4500 -SN BKN012 
     BECMG 2118/2120 BKN010 
     TEMPO 2118/2124 BKN005
       
EDHI 201750Z AUTO 11003KT 080V140 2400 // BKN002/// BKN004/// M04/M05 Q1021
EDDV 201750Z VRB01KT 3500 BR NSC M06/M07 Q1021 NOSIG
TAF EDDV 201700Z 2018/2118 VRB02KT 4500 BR NSC 
     BECMG 2019/2021 1500 BCFG 
     TEMPO 2019/2108 0600 FZFG BKN001 
     BECMG 2108/2110 20008KT CAVOK
       
EDAH 201420Z 22003KT 9999 BKN010 M01/M03 Q1020
TAF EDAH 201400Z 2015/2024 24004KT 9000 BKN009 
     TEMPO 2015/2024 4000 BR BKN015
       
EDQM 201750Z 08007KT 050V110 9999 OVC010 M05/M07 Q1016
TAF EDQM 201700Z 2018/2103 VRB03KT 9999 BKN012 
     TEMPO 2018/2103 2500 BR SCT012
       
ETIH 201756Z AUTO 06003KT 9999 OVC018 M03/M05 M RMK AO2 SLPNO T10311048 11031 21040 $
ETNH 201720Z 19001KT 6000 MIFG FEW110 M04/M05 Q1021 WHT
TAF COR ETNH 201159Z 2012/2100 21005KT 4500 BR BKN100 
     TEMPO 2012/2018 VRB03KT 8000 NSW SCT130 
     BECMG 2022/2100 21007KT 3000 BR BKN100 BY ETGL
       
ETSH 201720Z 00000KT 9999 M05/M06 Q1020 BLU+
ETSI 201720Z AUTO 08004KT 5000 // ////// M04/M06 Q1016 ///
EDSB 201750Z 02010KT 9999 OVC025 M01/M04 Q1017
TAF EDSB 201700Z 2018/2118 03005KT 9999 BKN030 
     PROB30 
     TEMPO 2101/2109 4000 BR BKN012
       
EDVK 201750Z 22002KT CAVOK M05/M07 Q1019
TAF EDVK 201700Z 2018/2103 VRB03KT CAVOK
       
EDHK 201520Z VRB03KT CAVOK 01/M03 Q1020
TAF EDHK 201400Z 2015/2018 24003KT CAVOK
       
EDDK 201750Z 07005KT CAVOK M02/M06 Q1019 NOSIG
TAF EDDK 201700Z 2018/2124 VRB02KT CAVOK
       
ETNL 201720Z 26003KT 6000 OVC002 M03/M03 Q1021 AMB
TAF ETNL 201725Z 2018/2106 08005KT 5000 BR BKN004 
     TEMPO 2018/2106 VRB03KT 0500 FZFG BKN001 BY ETGL
       
EDTL 201250Z 36004KT 330V030 3000 -SN BKN006 OVC038 M01/M02 Q1015
TAF EDTL 201100Z 2012/2021 VRB03KT 6000 SCT005 BKN040 
     TEMPO 2012/2021 2000 -SN BR BKN005
       
ETHL 201720Z 05005KT 4500 BR BKN031 M03/M05 Q1014 GRN
ETSL 201720Z 02004KT 7000 BKN030 M04/M04 Q1014 WHT
EDDP 201750Z 32002KT CAVOK M04/M07 Q1020 NOSIG
TAF EDDP 201700Z 2018/2118 VRB02KT 9999 SCT030 
     BECMG 2107/2110 21007KT
       
EDHL 201750Z VRB02KT 0200 R07/1200V1800N FZFG VV/// M05/M05 Q1021
TAF EDHL 201700Z 2018/2021 VRB02KT 0200 FZFG OVC000
       
EDFM 201750Z 12001KT 9000 FEW046 M03/M04 Q1018
EDLN 201750Z 35003KT CAVOK M03/M07 Q1019
TAF EDLN 201700Z 2018/2103 VRB03KT CAVOK
       
EDDM 201750Z 04006KT 010V070 5000 BR FEW007 BKN035 OVC049 M04/M06 Q1016 TEMPO 4000
TAF EDDM 201700Z 2018/2124 06003KT 6000 SCT007 BKN030 
     TEMPO 2018/2109 2500 -SN BR BKN006 
     TEMPO 2109/2118 4000 BR BKN012
       
EDDG 201750Z 01003KT CAVOK M04/M06 Q1020 NOSIG
TAF EDDG 201700Z 2018/2118 VRB02KT CAVOK 
     BECMG 2022/2101 4500 BR 
     TEMPO 2105/2109 2500 BR 
     BECMG 2108/2111 21005KT CAVOK
       
ETSN 201720Z 07003KT 4000 BR BKN060 M04/M06 Q1016 GRN
TAF ETSN 201725Z 2018/2103 08005KT 8000 NSW SCT007 BKN050 
     TEMPO 2018/2103 05003KT 3000 BR BKN006 BKN050 BY ETGL
       
ETHN 201720Z 10005KT 9000 FEW040 SCT180 M07/M08 Q1015 BLU+
ETMN 201720Z 12002KT 9999 FEW120 M03/M04 Q1021 BLU+
ETNN 201720Z 29003KT 9999 M03/M06 Q1018 BLU+
EDDN 201750Z 07003KT 9999 BKN017 M04/M06 Q1017 NOSIG
TAF EDDN 201700Z 2018/2118 VRB03KT 9999 FEW020 
     PROB30 
     TEMPO 2018/2110 BKN012
       
EDMO 201550Z 03003KT 8000 -FZRA SCT034 BKN057 M03/M04 Q1013
EDLP 201750Z 12003KT CAVOK M03/M08 Q1019
TAF EDLP 201700Z 2018/2118 VRB03KT CAVOK
       
ETAR 201756Z 06003KT 9999 FEW020 M04/M04 A3004 RMK AO2A SLP198 T10451045 10003 21049 52020 $
TAF ETAR 201002Z 2010/2116 06006KT 9999 FEW020 QNH2995INS 
     BECMG 2100/2101 06009KT 9999 BKN020 QNH3010INS 
     BECMG 2109/2110 07009KT 9999 SCT020 QNH3014INS TX03/2013Z TNM10/2106Z
       
EDDR 201750Z 03009KT 360V070 9999 BKN013 M02/M05 Q1016 NOSIG
TAF EDDR 201700Z 2018/2118 04006KT 9999 BKN012 
     BECMG 2018/2020 SCT012
       
ETNS 201720Z AUTO 23002KT 6000 // ////// M02/M03 Q1021 ///
EDDB 201750Z 06005KT 9999 OVC006 M03/M04 Q1021 TEMPO BKN004
TAF EDDB 201700Z 2018/2118 07004KT 9000 BKN006 
     TEMPO 2018/2102 BKN004 
     TEMPO 2021/2109 2500 BR 
     TEMPO 2102/2108 SCT008 
     BECMG 2108/2110 22007KT FEW010
       
EDTY 201720Z 08006KT 6000 BKN008 OVC045 M03/M03 Q1016
TAF EDTY 201700Z 2018/2103 06005KT 6000 OVC008 
     BECMG 2018/2020 FEW008 
     TEMPO 2018/2103 2500 BR
       
EDGS 201620Z 07004KT CAVOK M05/M09 Q1015
TAF EDGS 201400Z 2015/2024 09006KT CAVOK
       
ETAD 201756Z AUTO 05008KT 9999 CLR M05/M08 A3002 RMK AO2 SLP185 T10501078 11022 21054 52018 $
TAF ETAD 201257Z 2012/2117 06012KT 9999 SCT010 QNH2991INS 
     TEMPO 2012/2014 BKN010 
     BECMG 2018/2019 07009KT 9999 BKN012 QNH2995INS 
     BECMG 2022/2023 03006KT 9999 BKN010 QNH3004INS TXM01/2015Z TNM03/2013Z
       
EDDS 201750Z 35004KT 320V040 9999 -SN FEW010 BKN026 M01/M04 Q1015 NOSIG
TAF EDDS 201700Z 2018/2118 VRB03KT 9999 FEW015 BKN030 
     PROB30 
     TEMPO 2103/2109 4000 BR BKN014
       
EDDT 201750Z 04003KT 310V110 7000 BKN006 M03/M04 Q1021 NOSIG
TAF EDDT 201700Z 2018/2118 07004KT 9000 BKN006 
     TEMPO 2018/2102 BKN004 
     TEMPO 2021/2109 2500 BR 
     TEMPO 2102/2108 SCT008 
     BECMG 2108/2110 22007KT FEW010
       
EDXW 201550Z 22005KT CAVOK 01/M01 Q1020
TAF EDXW 201400Z 2015/2018 22006KT CAVOK
       
ETOU 201656Z AUTO 00000KT 9999 CLR M01/M08 A3005 RMK AO2 SLP188 T10121076 $
TAF AMD ETOU 201114Z 2009/2110 VRB06KT 9999 SCT015 QNH2992INS 
     BECMG 2017/2018 VRB06KT 9999 FEW015 QNH3004INS TX01/2014Z TNM03/2009Z LAST
NO AMDS AFT 2009 NEXT 2204
       
ETNT 201720Z AUTO 36003KT 8000 // ////// M03/M05 Q1021 ///
ETNW 201720Z 09002KT 3500 BR FEW006 M05/M07 Q1021 YLO
TAF ETNW 201720Z 2018/2118 10005KT 5000 BR FEW007 
     TEMPO 2018/2021 VRB03KT 2000 BR BKN006 
     TEMPO 2021/2111 06005KT 0500 FZFG BKN001 BY ETGL